Oliver Hazard Perry — KOHZ — position and weather

sailwx.info

Track history (hours):
 
Tides and Currents Weather Stations Pressure Air Temp Water Temp Dewpoint Dewpoint Depression Visibility Wind Speed Wind Dir Waves Ship Positions

Oliver Hazard Perry

Owner: Oliver Hazard Perry Rhode Island, Newport, RI. More information available from US FCC via Universal Licensing System and Coast Guard Vessel Documentation Center.

Last reported at 2019-Aug-21 07:41 UTC. Time now 2019-Aug-22 08:51 UTC.
Position N 42°23' W 070°51'.

; draft 4 m.

Type: Sailing vessel. MMSI: 367658110.

Date/timePositionNaut miles runAvg speedWind from/ knotsBaromVisibWave heightAir tempDewpointWater temp
2019-Aug-21 07:41N 42°23' W 070°51'2 5.5
2019-Aug-21 07:21N 42°23' W 070°48'40 4.6
2019-Aug-20 22:41N 41°44' W 070°37'1 6.5
2019-Aug-20 22:30N 41°43' W 070°38'3 6.6
2019-Aug-20 22:00N 41°41' W 070°41'1 2.1
2019-Aug-20 21:30N 41°40' W 070°42'0 1.0
2019-Aug-20 21:00N 41°40' W 070°42'1 2.3
2019-Aug-20 20:30N 41°39' W 070°43'1 2.9
2019-Aug-20 20:00N 41°37' W 070°43'2 3.2
2019-Aug-20 19:30N 41°36' W 070°43'2 3.1
2019-Aug-20 19:00N 41°34' W 070°44'3 5.3
2019-Aug-20 18:30N 41°32' W 070°47'4 7.3
2019-Aug-20 18:00N 41°30' W 070°51'  
Track history (hours):
 
Tides and Currents Weather Stations Pressure Air Temp Water Temp Dewpoint Dewpoint Depression Visibility Wind Speed Wind Dir Waves Ship Positions

Oliver Hazard Perry

Owner: Oliver Hazard Perry Rhode Island, Newport, RI. More information available from US FCC via Universal Licensing System and Coast Guard Vessel Documentation Center.

Last reported at 2019-Aug-21 07:41 UTC. Time now 2019-Aug-22 08:51 UTC.
Position N 42°23' W 070°51'.

; draft 4 m.

Type: Sailing vessel. MMSI: 367658110.

Date/timePositionNaut miles runAvg speedWind from/ knotsBaromVisibWave heightAir tempDewpointWater temp
2019-Aug-21 07:41N 42°23' W 070°51'2 5.5
2019-Aug-21 07:21N 42°23' W 070°48'40 4.6
2019-Aug-20 22:41N 41°44' W 070°37'1 6.5
2019-Aug-20 22:30N 41°43' W 070°38'3 6.6
2019-Aug-20 22:00N 41°41' W 070°41'1 2.1
2019-Aug-20 21:30N 41°40' W 070°42'0 1.0
2019-Aug-20 21:00N 41°40' W 070°42'1 2.3
2019-Aug-20 20:30N 41°39' W 070°43'1 2.9
2019-Aug-20 20:00N 41°37' W 070°43'2 3.2
2019-Aug-20 19:30N 41°36' W 070°43'2 3.1
2019-Aug-20 19:00N 41°34' W 070°44'3 5.3
2019-Aug-20 18:30N 41°32' W 070°47'4 7.3
2019-Aug-20 18:00N 41°30' W 070°51'  

Dump ship's entire track history